Time;durP1;ratioP1;P1;durP2;ratioP2;P2;SDS_P1;SDS_P2;PMS_P1;PMS_P2;Temp;Humidity;BMP_temperature;BMP_pressure;BME280_temperature;BME280_humidity;BME280_pressure;Samples;Min_cycle;Max_cycle;Signal;HPM_P1;HPM_P2
2022/04/15 00:00:48;;;;;;;10.60;5.28;;;10.40;99.90;;;;;;5129878;27;20071;-73
2022/04/15 00:03:14;;;;;;;9.30;5.30;;;10.40;99.90;;;;;;5111435;27;20247;-72
2022/04/15 00:05:40;;;;;;;9.05;5.45;;;10.60;99.90;;;;;;5137425;27;20027;-73
2022/04/15 00:08:10;;;;;;;10.18;5.68;;;10.60;99.90;;;;;;5082724;27;20039;-72
2022/04/15 00:10:54;;;;;;;11.27;6.45;;;10.40;99.90;;;;;;5127124;27;20023;-74
2022/04/15 00:13:24;;;;;;;9.27;5.57;;;10.60;99.90;;;;;;5128225;27;20191;-72
2022/04/15 00:15:53;;;;;;;10.88;5.10;;;10.70;99.90;;;;;;5092414;27;20138;-73
2022/04/15 00:18:19;;;;;;;8.65;5.28;;;10.40;99.90;;;;;;5137035;27;20073;-75
2022/04/15 00:20:44;;;;;;;7.78;4.97;;;10.80;99.90;;;;;;5143052;27;20669;-74
2022/04/15 00:23:10;;;;;;;7.38;5.20;;;10.50;99.90;;;;;;5119513;27;20317;-75
2022/04/15 00:25:38;;;;;;;10.18;5.28;;;10.70;99.90;;;;;;5122059;27;20103;-72
2022/04/15 00:28:04;;;;;;;6.45;4.82;;;10.70;99.90;;;;;;5106596;27;20390;-73
2022/04/15 00:30:30;;;;;;;7.47;4.90;;;10.70;99.90;;;;;;5101081;27;20031;-72
2022/04/15 00:32:55;;;;;;;7.07;4.65;;;10.70;99.90;;;;;;5134402;27;20035;-72
2022/04/15 00:35:21;;;;;;;7.70;4.90;;;10.80;99.90;;;;;;5111277;27;20209;-74
2022/04/15 00:37:47;;;;;;;8.75;4.75;;;10.60;99.90;;;;;;5095967;27;20210;-75
2022/04/15 00:40:13;;;;;;;5.65;4.43;;;10.70;99.90;;;;;;5110567;27;21084;-74
2022/04/15 00:42:39;;;;;;;8.48;4.60;;;10.50;99.90;;;;;;5132588;27;20034;-72
2022/04/15 00:45:09;;;;;;;8.77;4.80;;;10.40;99.90;;;;;;5142112;27;20063;-72
2022/04/15 00:47:51;;;;;;;5.97;4.43;;;10.30;99.90;;;;;;5122277;27;20054;-72
2022/04/15 00:50:24;;;;;;;8.75;4.47;;;10.60;99.90;;;;;;5128815;27;20043;-72
2022/04/15 00:52:53;;;;;;;6.00;4.10;;;10.40;99.90;;;;;;5139064;27;20075;-73
2022/04/15 00:55:55;;;;;;;5.90;4.18;;;10.70;99.90;;;;;;5137064;27;20354;-73
2022/04/15 00:58:23;;;;;;;5.78;4.07;;;10.30;99.90;;;;;;5110654;27;20043;-75
2022/04/15 01:00:53;;;;;;;9.75;4.15;;;10.30;99.90;;;;;;5111046;27;20077;-73
2022/04/15 01:03:25;;;;;;;6.82;4.00;;;10.30;99.90;;;;;;5128809;27;20245;-72
2022/04/15 01:05:57;;;;;;;7.82;4.00;;;10.60;99.90;;;;;;5100174;27;20051;-72
2022/04/15 01:08:25;;;;;;;5.10;3.88;;;10.50;99.90;;;;;;5135626;27;20284;-73
2022/04/15 01:10:52;;;;;;;6.25;3.70;;;10.30;99.90;;;;;;5105700;27;20023;-72
2022/04/15 01:13:21;;;;;;;7.72;3.65;;;10.60;99.90;;;;;;5149631;27;20312;-73
2022/04/15 01:15:48;;;;;;;8.15;3.78;;;10.40;99.90;;;;;;5149701;27;20030;-71
2022/04/15 01:18:17;;;;;;;8.30;4.20;;;10.40;99.90;;;;;;5130187;27;20336;-72
2022/04/15 01:20:46;;;;;;;6.25;3.70;;;10.70;99.90;;;;;;5124229;27;20072;-74
2022/04/15 01:23:12;;;;;;;8.45;3.80;;;10.40;99.90;;;;;;5132176;27;20027;-73
2022/04/15 01:25:39;;;;;;;8.45;3.90;;;10.30;99.90;;;;;;5103221;27;20455;-72
2022/04/15 01:28:32;;;;;;;7.85;4.55;;;10.50;99.90;;;;;;5126075;27;20037;-72
2022/04/15 01:30:58;;;;;;;8.85;3.72;;;10.40;99.90;;;;;;5108615;27;20038;-72
2022/04/15 01:33:24;;;;;;;13.25;4.63;;;10.60;99.90;;;;;;5134438;27;20041;-74
2022/04/15 01:35:50;;;;;;;6.88;4.07;;;10.70;99.90;;;;;;5134545;27;20042;-73
2022/04/15 01:38:17;;;;;;;6.93;3.63;;;10.40;99.90;;;;;;5144639;27;20023;-73
2022/04/15 01:40:44;;;;;;;7.78;4.18;;;10.50;99.90;;;;;;5120604;27;20209;-73
2022/04/15 01:43:16;;;;;;;8.13;4.32;;;10.70;99.90;;;;;;5138050;27;20026;-73
2022/04/15 01:45:45;;;;;;;8.95;3.95;;;10.60;99.90;;;;;;5112124;27;20391;-73
2022/04/15 01:48:11;;;;;;;8.15;4.20;;;10.60;99.90;;;;;;5138567;27;20070;-73
2022/04/15 01:50:36;;;;;;;8.30;4.18;;;10.80;99.90;;;;;;5126488;27;20187;-73
2022/04/15 01:53:02;;;;;;;9.00;4.47;;;10.80;99.90;;;;;;5142756;27;20050;-72
2022/04/15 01:55:31;;;;;;;5.70;4.07;;;10.50;99.90;;;;;;5118927;27;20031;-73
2022/04/15 01:57:59;;;;;;;9.82;4.53;;;10.70;99.90;;;;;;5117810;27;20034;-73
2022/04/15 02:00:25;;;;;;;9.00;4.70;;;10.50;99.90;;;;;;5139901;27;20390;-72
2022/04/15 02:02:51;;;;;;;11.45;4.88;;;10.70;99.90;;;;;;5135089;27;20031;-73
2022/04/15 02:05:17;;;;;;;9.85;4.90;;;10.60;99.90;;;;;;5137364;27;20035;-73
2022/04/15 02:07:42;;;;;;;8.70;5.30;;;10.50;99.90;;;;;;5107718;27;20045;-73
2022/04/15 02:10:17;;;;;;;9.65;4.75;;;10.80;99.90;;;;;;5120376;27;20041;-74
2022/04/15 02:12:42;;;;;;;10.38;4.88;;;10.80;99.90;;;;;;5135630;27;20023;-72
2022/04/15 02:15:09;;;;;;;12.20;4.90;;;10.50;99.90;;;;;;5122570;28;20274;-73
2022/04/15 02:17:40;;;;;;;9.43;4.80;;;10.50;99.90;;;;;;5132574;27;20047;-72
2022/04/15 02:20:06;;;;;;;12.80;4.80;;;10.90;99.90;;;;;;5118726;27;20023;-71
2022/04/15 02:22:43;;;;;;;11.75;4.75;;;10.60;99.90;;;;;;5109391;27;20049;-72
2022/04/15 02:25:09;;;;;;;7.25;4.82;;;10.60;99.90;;;;;;5118909;27;20034;-71
2022/04/15 02:27:35;;;;;;;10.77;5.10;;;10.50;99.90;;;;;;5095260;27;20039;-72
2022/04/15 02:30:00;;;;;;;11.18;4.70;;;10.70;99.90;;;;;;5141613;27;20031;-72
2022/04/15 02:32:29;;;;;;;10.80;5.07;;;10.80;99.90;;;;;;5121824;27;20035;-72
2022/04/15 02:34:55;;;;;;;10.25;6.03;;;10.50;99.90;;;;;;5107150;28;20347;-72
2022/04/15 02:37:47;;;;;;;11.98;8.60;;;10.40;99.90;;;;;;5123182;27;20023;-72
2022/04/15 02:40:30;;;;;;;14.48;7.93;;;10.50;99.90;;;;;;5105642;27;20102;-72
2022/04/15 02:43:00;;;;;;;13.80;9.60;;;10.40;99.90;;;;;;5116308;27;20027;-73
2022/04/15 02:45:49;;;;;;;13.45;9.35;;;10.40;99.90;;;;;;5127737;27;20063;-72
2022/04/15 02:48:31;;;;;;;13.80;9.15;;;10.50;99.90;;;;;;5121683;27;20058;-73
2022/04/15 02:51:20;;;;;;;15.23;9.63;;;10.50;99.90;;;;;;5118729;27;20186;-72
2022/04/15 02:54:00;;;;;;;12.35;8.82;;;11.20;99.90;;;;;;5121946;27;20039;-72
2022/04/15 02:56:26;;;;;;;13.02;9.27;;;10.70;99.90;;;;;;5116015;27;20038;-73
2022/04/15 02:58:52;;;;;;;12.63;8.85;;;10.40;99.90;;;;;;5139053;27;20366;-73
2022/04/15 03:01:17;;;;;;;10.90;7.63;;;10.30;99.90;;;;;;5101289;27;20368;-72
2022/04/15 03:03:43;;;;;;;8.45;6.50;;;10.60;99.90;;;;;;5126016;27;20029;-73
2022/04/15 03:06:08;;;;;;;8.18;6.60;;;10.60;99.90;;;;;;5104770;28;20023;-73
2022/04/15 03:08:34;;;;;;;7.88;6.25;;;10.20;99.90;;;;;;5128460;27;20100;-72
2022/04/15 03:11:00;;;;;;;10.48;6.18;;;10.40;99.90;;;;;;5109062;27;20043;-72
2022/04/15 03:13:27;;;;;;;8.00;5.57;;;10.10;99.90;;;;;;5129907;27;20493;-73
2022/04/15 03:15:56;;;;;;;5.63;4.78;;;10.40;99.90;;;;;;5138838;27;20372;-75
2022/04/15 03:18:21;;;;;;;8.13;5.35;;;10.30;99.90;;;;;;5112552;27;20101;-71
2022/04/15 03:20:50;;;;;;;7.18;5.50;;;9.90;99.90;;;;;;5135896;27;20101;-73
2022/04/15 03:23:19;;;;;;;6.03;5.32;;;9.90;99.90;;;;;;5107262;27;20141;-74
2022/04/15 03:25:55;;;;;;;7.53;5.88;;;10.00;99.90;;;;;;5112864;27;20084;-73
2022/04/15 03:28:21;;;;;;;6.45;5.03;;;9.70;99.90;;;;;;5134356;27;20113;-73
2022/04/15 03:30:46;;;;;;;6.60;5.40;;;10.10;99.90;;;;;;5117163;27;20208;-73
2022/04/15 03:33:12;;;;;;;6.90;4.82;;;9.90;99.90;;;;;;5119128;27;20215;-72
2022/04/15 03:35:55;;;;;;;5.13;4.63;;;10.00;99.90;;;;;;5115480;27;20054;-73
2022/04/15 03:38:26;;;;;;;4.40;4.00;;;9.50;99.90;;;;;;5133307;27;20038;-73
2022/04/15 03:40:52;;;;;;;6.22;4.28;;;9.60;99.90;;;;;;5133168;27;20317;-74
2022/04/15 03:43:18;;;;;;;6.78;4.25;;;9.30;99.90;;;;;;5120876;27;20038;-72
2022/04/15 03:45:43;;;;;;;5.45;4.18;;;9.30;99.90;;;;;;5127878;27;20031;-73
2022/04/15 03:48:09;;;;;;;5.90;4.10;;;9.30;99.90;;;;;;5108909;27;20039;-73
2022/04/15 03:50:36;;;;;;;6.82;4.90;;;9.20;99.90;;;;;;5124858;27;20293;-73
2022/04/15 03:53:02;;;;;;;5.70;5.10;;;9.50;99.90;;;;;;5144785;27;20050;-72
2022/04/15 03:55:30;;;;;;;5.72;5.13;;;9.20;99.90;;;;;;5107556;27;20226;-72
2022/04/15 03:57:55;;;;;;;5.72;5.13;;;9.40;99.90;;;;;;5142057;27;20101;-72
2022/04/15 04:00:23;;;;;;;6.43;5.20;;;9.40;99.90;;;;;;5115676;27;20019;-72
2022/04/15 04:02:51;;;;;;;6.70;3.85;;;9.50;99.90;;;;;;5144061;27;20062;-72
2022/04/15 04:05:20;;;;;;;6.40;3.60;;;9.40;99.90;;;;;;5115509;27;20083;-73
2022/04/15 04:07:52;;;;;;;7.85;4.43;;;9.50;99.90;;;;;;5127786;27;20045;-73
2022/04/15 04:10:19;;;;;;;6.97;4.85;;;9.50;99.90;;;;;;5143022;27;20274;-73
2022/04/15 04:12:45;;;;;;;5.70;4.97;;;9.50;99.90;;;;;;5133723;27;20102;-72
2022/04/15 04:15:12;;;;;;;7.05;4.82;;;9.60;99.90;;;;;;5106214;27;20026;-72
2022/04/15 04:17:38;;;;;;;6.95;5.10;;;9.50;99.90;;;;;;5143141;27;20094;-72
2022/04/15 04:20:05;;;;;;;6.45;5.53;;;9.50;99.90;;;;;;5102075;27;20042;-73
2022/04/15 04:22:33;;;;;;;6.63;5.57;;;9.50;99.90;;;;;;5146275;27;20065;-71
2022/04/15 04:24:58;;;;;;;5.63;5.13;;;9.40;99.90;;;;;;5126740;27;20023;-74
2022/04/15 04:27:43;;;;;;;6.63;5.05;;;9.40;99.90;;;;;;5109217;27;20340;-72
2022/04/15 04:30:12;;;;;;;6.60;4.80;;;9.50;99.90;;;;;;5139862;27;20015;-73
2022/04/15 04:32:38;;;;;;;6.82;4.47;;;9.50;99.90;;;;;;5140809;27;20027;-72
2022/04/15 04:35:06;;;;;;;5.32;4.55;;;9.40;99.90;;;;;;5136197;27;20027;-73
2022/04/15 04:37:32;;;;;;;5.07;3.80;;;9.30;99.90;;;;;;5129522;27;20318;-72
2022/04/15 04:40:00;;;;;;;5.75;4.43;;;9.20;99.90;;;;;;5124509;27;20070;-71
2022/04/15 04:42:26;;;;;;;3.55;3.25;;;9.30;99.90;;;;;;5129288;27;20034;-73
2022/04/15 04:44:52;;;;;;;4.05;3.50;;;9.30;99.90;;;;;;5102296;27;20026;-74
2022/04/15 04:47:28;;;;;;;6.53;4.30;;;9.30;99.90;;;;;;5124660;27;20289;-72
2022/04/15 04:49:55;;;;;;;6.38;4.45;;;9.20;99.90;;;;;;5135562;27;20194;-72
2022/04/15 04:52:23;;;;;;;8.25;5.57;;;9.30;99.90;;;;;;5144973;27;20325;-75
2022/04/15 04:54:49;;;;;;;6.07;4.95;;;9.30;99.90;;;;;;5142215;27;20042;-73
2022/04/15 04:57:15;;;;;;;5.35;4.85;;;9.30;99.90;;;;;;5116505;27;20059;-72
2022/04/15 04:59:40;;;;;;;6.63;4.85;;;9.30;99.90;;;;;;5126288;27;20189;-73
2022/04/15 05:02:09;;;;;;;6.50;5.13;;;9.40;99.90;;;;;;5108049;27;20026;-72
2022/04/15 05:04:40;;;;;;;6.45;5.30;;;9.30;99.90;;;;;;5124641;27;20031;-72
2022/04/15 05:07:06;;;;;;;8.13;5.20;;;9.30;99.90;;;;;;5107938;27;20206;-72
2022/04/15 05:09:32;;;;;;;7.30;5.05;;;9.30;99.90;;;;;;5106418;27;20031;-72
2022/04/15 05:12:20;;;;;;;8.18;5.55;;;9.40;99.90;;;;;;5140677;27;20206;-74
2022/04/15 05:15:22;;;;;;;;;;;;;;;;;;;;;
2022/04/15 05:17:58;;;;;;;4.97;3.78;;;9.50;99.90;;;;;;5142016;27;20087;-72
2022/04/15 05:20:29;;;;;;;4.22;3.47;;;9.40;99.90;;;;;;5102603;27;20023;-75
2022/04/15 05:22:54;;;;;;;6.68;4.70;;;9.30;99.90;;;;;;5147400;27;20037;-74
2022/04/15 05:25:20;;;;;;;6.18;4.55;;;9.30;99.90;;;;;;5150150;27;20343;-73
2022/04/15 05:27:46;;;;;;;8.52;5.28;;;9.40;99.90;;;;;;5134958;27;20042;-73
2022/04/15 05:30:12;;;;;;;6.53;5.32;;;9.50;99.90;;;;;;5119374;27;20022;-73
2022/04/15 05:32:38;;;;;;;8.63;6.30;;;9.50;99.90;;;;;;5107671;27;20038;-73
2022/04/15 05:35:04;;;;;;;8.73;6.45;;;9.70;99.90;;;;;;5151958;27;20036;-72
2022/04/15 05:37:29;;;;;;;7.63;6.38;;;9.60;99.90;;;;;;5137584;27;20090;-72
2022/04/15 05:39:55;;;;;;;7.63;6.38;;;9.50;99.90;;;;;;5151197;27;20027;-73
2022/04/15 05:42:21;;;;;;;10.70;7.03;;;9.50;99.90;;;;;;5121309;27;20119;-73
2022/04/15 05:44:46;;;;;;;12.00;7.63;;;9.80;99.90;;;;;;5136304;27;20035;-73
2022/04/15 05:47:14;;;;;;;10.32;7.65;;;9.80;99.90;;;;;;5142345;27;20045;-73
2022/04/15 05:49:39;;;;;;;9.57;7.47;;;9.80;99.90;;;;;;5124600;27;20305;-73
2022/04/15 05:52:06;;;;;;;11.40;7.47;;;9.80;99.90;;;;;;5110572;27;20054;-74
2022/04/15 05:54:51;;;;;;;10.20;7.90;;;9.90;99.90;;;;;;5125946;27;20068;-74
2022/04/15 05:57:18;;;;;;;10.93;7.78;;;9.80;99.90;;;;;;5138215;27;20205;-74
2022/04/15 05:59:43;;;;;;;10.73;7.60;;;9.70;99.90;;;;;;5106509;28;20232;-74
2022/04/15 06:02:09;;;;;;;13.60;7.75;;;9.80;99.90;;;;;;5102294;27;20080;-75
2022/04/15 06:04:35;;;;;;;12.10;8.02;;;10.00;99.90;;;;;;5105389;27;20068;-73
2022/04/15 06:07:00;;;;;;;11.23;8.60;;;9.80;99.90;;;;;;5142040;27;20034;-75
2022/04/15 06:09:26;;;;;;;11.60;8.57;;;10.10;99.90;;;;;;5120944;28;20035;-74
2022/04/15 06:11:55;;;;;;;11.38;9.07;;;10.10;99.90;;;;;;5125660;27;20061;-72
2022/04/15 06:14:22;;;;;;;11.35;8.70;;;10.20;99.90;;;;;;5124208;27;20251;-73
2022/04/15 06:16:48;;;;;;;13.45;9.75;;;10.00;99.90;;;;;;5140868;27;20060;-74
2022/04/15 06:19:14;;;;;;;11.48;9.82;;;10.10;99.90;;;;;;5142374;27;20041;-72
2022/04/15 06:21:50;;;;;;;13.23;9.90;;;10.00;99.90;;;;;;5125507;27;20239;-73
2022/04/15 06:24:16;;;;;;;15.57;11.43;;;9.90;99.90;;;;;;5120310;28;20031;-72
2022/04/15 06:26:42;;;;;;;16.55;11.48;;;10.10;99.90;;;;;;5128519;27;20031;-72
2022/04/15 06:29:07;;;;;;;17.17;12.27;;;9.90;99.90;;;;;;5126525;27;20053;-72
2022/04/15 06:31:33;;;;;;;17.48;11.88;;;9.90;99.90;;;;;;5116322;28;20273;-72
2022/04/15 06:33:58;;;;;;;22.35;12.57;;;10.00;99.90;;;;;;5123711;27;20019;-72
2022/04/15 06:36:24;;;;;;;19.42;11.63;;;10.20;99.90;;;;;;5125999;27;20030;-74
2022/04/15 06:38:50;;;;;;;18.52;12.88;;;9.90;99.90;;;;;;5125857;27;20096;-76
2022/04/15 06:41:16;;;;;;;20.48;12.13;;;10.00;99.90;;;;;;5107294;27;20031;-73
2022/04/15 06:43:44;;;;;;;19.95;13.15;;;10.10;99.90;;;;;;5132454;27;20034;-74
2022/04/15 06:46:10;;;;;;;18.83;12.55;;;10.10;99.90;;;;;;5146808;27;20034;-75
2022/04/15 06:48:50;;;;;;;18.77;11.38;;;9.90;99.90;;;;;;5143092;27;20278;-75
2022/04/15 06:51:19;;;;;;;14.93;10.00;;;9.90;99.90;;;;;;5094937;27;20195;-74
2022/04/15 06:53:45;;;;;;;17.55;10.52;;;9.80;99.90;;;;;;5135759;27;20077;-74
2022/04/15 06:56:14;;;;;;;15.73;10.70;;;9.80;99.90;;;;;;5110602;27;20038;-75
2022/04/15 06:58:41;;;;;;;19.10;10.63;;;10.10;99.90;;;;;;5126738;27;20031;-73
2022/04/15 07:01:23;;;;;;;19.52;11.68;;;10.00;99.90;;;;;;5129177;27;20337;-75
2022/04/15 07:03:48;;;;;;;15.68;10.70;;;10.00;99.90;;;;;;5090544;27;20110;-75
2022/04/15 07:06:14;;;;;;;20.05;11.15;;;9.80;99.90;;;;;;5096126;27;20031;-75
2022/04/15 07:08:40;;;;;;;18.73;11.25;;;9.80;99.90;;;;;;5123045;28;20044;-73
2022/04/15 07:11:05;;;;;;;15.48;11.55;;;10.00;99.90;;;;;;5089679;27;20035;-73
2022/04/15 07:13:31;;;;;;;17.05;10.48;;;10.10;99.90;;;;;;5122868;28;20094;-73
2022/04/15 07:15:57;;;;;;;15.10;10.73;;;9.90;99.90;;;;;;5110458;28;20035;-73
2022/04/15 07:18:22;;;;;;;17.45;10.43;;;9.90;99.90;;;;;;5108938;27;20222;-73
2022/04/15 07:20:48;;;;;;;15.73;10.68;;;10.10;99.90;;;;;;5131561;27;20049;-73
2022/04/15 07:23:14;;;;;;;14.85;9.38;;;10.10;99.90;;;;;;5140416;27;20109;-73
2022/04/15 07:25:40;;;;;;;16.55;9.70;;;10.00;99.90;;;;;;5122160;27;20213;-72
2022/04/15 07:28:05;;;;;;;18.05;9.80;;;10.10;99.90;;;;;;5123313;27;20050;-72
2022/04/15 07:30:31;;;;;;;13.25;8.85;;;9.90;99.90;;;;;;5140532;27;20034;-73
2022/04/15 07:32:58;;;;;;;15.25;9.70;;;10.00;99.90;;;;;;5122761;27;20035;-73
2022/04/15 07:35:24;;;;;;;10.50;7.30;;;9.90;99.90;;;;;;5106436;27;20035;-73
2022/04/15 07:37:50;;;;;;;12.45;8.15;;;9.80;99.90;;;;;;5143639;27;20039;-74
2022/04/15 07:40:16;;;;;;;8.68;6.63;;;9.60;99.90;;;;;;5108906;27;20023;-73
2022/04/15 07:42:42;;;;;;;11.80;7.25;;;9.60;99.90;;;;;;5092521;27;20070;-73
2022/04/15 07:45:08;;;;;;;15.82;10.90;;;9.50;99.90;;;;;;5120898;27;20034;-73
2022/04/15 07:47:34;;;;;;;9.48;6.97;;;9.50;99.90;;;;;;5143413;27;20050;-71
2022/04/15 07:49:59;;;;;;;10.85;6.93;;;9.50;99.90;;;;;;5105009;28;20102;-71
2022/04/15 07:52:26;;;;;;;9.00;6.30;;;9.60;99.90;;;;;;5084544;28;20060;-71
2022/04/15 07:54:52;;;;;;;10.40;6.53;;;9.70;99.90;;;;;;5101392;28;20043;-71
2022/04/15 07:57:17;;;;;;;12.02;6.53;;;9.90;99.90;;;;;;5119281;28;20142;-71
2022/04/15 07:59:44;;;;;;;8.95;6.03;;;9.80;99.90;;;;;;5104158;28;20020;-72
2022/04/15 08:02:13;;;;;;;13.65;6.93;;;9.80;99.90;;;;;;5122188;28;20027;-72
2022/04/15 08:04:41;;;;;;;10.13;6.10;;;9.90;99.90;;;;;;5098300;28;20024;-73
2022/04/15 08:07:07;;;;;;;11.88;7.05;;;10.50;99.90;;;;;;5077331;28;20141;-73
2022/04/15 08:09:33;;;;;;;9.82;6.25;;;10.00;99.90;;;;;;5087324;28;20307;-73
2022/04/15 08:11:58;;;;;;;7.35;6.05;;;10.10;99.90;;;;;;5109036;28;20059;-74
2022/04/15 08:14:24;;;;;;;8.30;5.70;;;10.00;99.90;;;;;;5084599;28;20035;-74
2022/04/15 08:16:50;;;;;;;12.55;6.63;;;10.10;99.90;;;;;;5090950;28;20207;-73
2022/04/15 08:19:17;;;;;;;7.53;5.38;;;10.00;99.90;;;;;;5124467;27;20035;-72
2022/04/15 08:21:42;;;;;;;11.13;6.22;;;10.30;99.90;;;;;;5126056;27;20027;-71
2022/04/15 08:24:08;;;;;;;9.13;5.88;;;10.20;99.90;;;;;;5104151;28;20072;-72
2022/04/15 08:26:34;;;;;;;10.02;6.22;;;10.10;99.90;;;;;;5099245;28;20058;-72
2022/04/15 08:29:00;;;;;;;9.38;5.50;;;10.10;99.90;;;;;;5112980;27;20031;-73
2022/04/15 08:31:25;;;;;;;7.38;5.65;;;9.90;99.90;;;;;;5119131;27;20220;-71
2022/04/15 08:33:51;;;;;;;9.32;5.25;;;9.80;99.90;;;;;;5085916;28;20032;-72
2022/04/15 08:36:40;;;;;;;7.80;5.65;;;9.70;99.90;;;;;;5087053;28;20432;-73
2022/04/15 08:39:06;;;;;;;6.95;5.32;;;9.50;99.90;;;;;;5098497;28;20331;-72
2022/04/15 08:41:40;;;;;;;7.57;6.25;;;9.70;99.90;;;;;;5101369;27;20057;-71
2022/04/15 08:44:06;;;;;;;9.55;5.93;;;10.20;99.90;;;;;;5107522;28;20092;-72
2022/04/15 08:46:32;;;;;;;10.43;5.95;;;10.50;99.90;;;;;;5113339;28;20078;-71
2022/04/15 08:52:47;;;;;;;6.85;5.13;;;10.70;99.90;;;;;;5100039;27;20246;-73
2022/04/15 08:55:13;;;;;;;7.78;5.40;;;11.30;99.90;;;;;;5081167;27;20157;-73
2022/04/15 08:57:39;;;;;;;6.57;5.53;;;11.30;99.90;;;;;;5097642;27;20043;-73
2022/04/15 09:00:05;;;;;;;8.63;5.82;;;11.80;99.90;;;;;;5114843;28;20138;-72
2022/04/15 09:02:33;;;;;;;7.13;5.35;;;12.00;99.90;;;;;;5123010;27;20105;-73
2022/04/15 09:05:00;;;;;;;7.55;6.00;;;11.60;99.90;;;;;;5113099;27;20047;-71
2022/04/15 09:07:30;;;;;;;7.22;5.20;;;11.70;99.90;;;;;;5143390;27;20147;-72
2022/04/15 09:09:58;;;;;;;6.95;5.38;;;11.50;99.90;;;;;;5114975;27;20047;-73
2022/04/15 09:12:29;;;;;;;10.05;5.65;;;11.50;99.90;;;;;;5121983;27;20108;-73
2022/04/15 09:15:08;;;;;;;9.60;5.80;;;11.50;99.90;;;;;;5115035;27;20071;-72
2022/04/15 09:17:36;;;;;;;8.77;6.00;;;11.00;99.90;;;;;;5115402;27;20042;-71
2022/04/15 09:20:14;;;;;;;8.82;5.60;;;11.30;99.90;;;;;;5118507;27;20114;-72
2022/04/15 09:22:52;;;;;;;10.85;6.28;;;11.10;99.90;;;;;;5117725;27;20047;-72
2022/04/15 09:25:21;;;;;;;11.48;6.10;;;10.90;99.90;;;;;;5129844;27;20093;-73
2022/04/15 09:27:54;;;;;;;8.15;6.13;;;10.80;99.90;;;;;;5099005;28;20051;-73
2022/04/15 09:31:17;;;;;;;;;;;;;;;;;;;;;
2022/04/15 09:34:02;;;;;;;8.07;5.07;;;11.30;99.90;;;;;;5036425;27;20032;-74
2022/04/15 09:36:30;;;;;;;6.63;5.05;;;10.90;99.90;;;;;;5124071;27;20373;-72
2022/04/15 09:39:14;;;;;;;11.55;7.07;;;10.70;99.90;;;;;;5097614;28;20074;-72
2022/04/15 09:41:56;;;;;;;7.78;5.18;;;10.80;99.90;;;;;;5114989;28;20797;-72
2022/04/15 09:44:31;;;;;;;9.00;6.07;;;10.80;99.90;;;;;;5114031;28;20376;-72
2022/04/15 09:47:02;;;;;;;8.95;6.20;;;10.70;99.90;;;;;;5119672;27;20043;-72
2022/04/15 09:49:32;;;;;;;9.65;6.70;;;10.70;99.90;;;;;;5117979;27;20167;-71
2022/04/15 09:55:11;;;;;;;8.43;6.00;;;10.60;99.90;;;;;;5121077;27;20229;-72
2022/04/15 09:57:45;;;;;;;10.40;6.40;;;10.60;99.90;;;;;;5103684;28;20110;-72
2022/04/15 10:00:16;;;;;;;9.25;5.35;;;10.60;99.90;;;;;;5102545;27;20091;-72
2022/04/15 10:02:43;;;;;;;7.72;4.88;;;10.60;99.90;;;;;;5134786;27;20035;-72
2022/04/15 10:05:09;;;;;;;7.97;5.47;;;10.70;99.90;;;;;;5134651;28;20046;-72
2022/04/15 10:07:49;;;;;;;8.77;5.78;;;10.60;99.90;;;;;;5123048;28;20102;-72
2022/04/15 10:10:16;;;;;;;9.82;6.25;;;10.50;99.90;;;;;;5115969;28;20096;-73
2022/04/15 10:12:43;;;;;;;10.60;6.07;;;10.30;99.90;;;;;;5117879;28;20179;-71
2022/04/15 10:15:10;;;;;;;9.07;6.30;;;10.20;99.90;;;;;;5100682;28;20287;-71
2022/04/15 10:17:40;;;;;;;7.28;5.43;;;10.20;99.90;;;;;;5137431;27;20042;-71
2022/04/15 10:20:33;;;;;;;10.32;5.43;;;10.30;99.90;;;;;;5106013;27;20061;-71
2022/04/15 10:23:15;;;;;;;6.78;5.53;;;10.30;99.90;;;;;;5117999;28;20330;-72
2022/04/15 10:25:46;;;;;;;7.63;5.75;;;10.40;99.90;;;;;;5119012;28;20039;-73
2022/04/15 10:28:16;;;;;;;6.63;5.28;;;10.50;99.90;;;;;;5106277;27;20246;-72
2022/04/15 10:30:51;;;;;;;7.10;6.00;;;10.40;99.90;;;;;;5121811;27;20410;-73
2022/04/15 10:33:31;;;;;;;6.88;5.97;;;10.40;99.90;;;;;;5101332;28;20070;-73
2022/04/15 10:36:09;;;;;;;6.82;5.00;;;10.50;99.90;;;;;;5101941;28;20339;-73
2022/04/15 10:38:35;;;;;;;6.75;4.53;;;10.50;99.90;;;;;;5123499;27;20106;-72
2022/04/15 10:41:15;;;;;;;6.95;5.18;;;10.50;99.90;;;;;;5121682;27;20039;-72
2022/04/15 10:43:58;;;;;;;7.57;4.97;;;10.50;99.90;;;;;;5120283;27;20050;-72
2022/04/15 10:46:31;;;;;;;7.15;5.70;;;10.40;99.90;;;;;;5121712;27;20414;-71
2022/04/15 10:49:01;;;;;;;7.47;5.63;;;10.50;99.90;;;;;;5111407;28;20134;-72
2022/04/15 10:51:31;;;;;;;7.38;5.03;;;10.40;99.90;;;;;;5084837;28;20042;-72
2022/04/15 10:54:34;;;;;;;7.03;5.70;;;10.30;99.90;;;;;;5138733;27;20094;-71
2022/04/15 10:57:09;;;;;;;6.85;5.78;;;10.20;99.90;;;;;;5138985;27;20043;-71
2022/04/15 11:02:43;;;;;;;7.90;6.03;;;10.20;99.90;;;;;;5121567;27;20345;-73
2022/04/15 11:05:13;;;;;;;8.98;5.90;;;10.00;99.90;;;;;;5119293;27;20337;-72
2022/04/15 11:07:56;;;;;;;6.18;5.03;;;10.00;99.90;;;;;;5121362;27;20106;-71
2022/04/15 11:10:41;;;;;;;7.97;6.25;;;9.90;99.90;;;;;;5126359;27;20395;-71
2022/04/15 11:13:43;;;;;;;7.57;5.78;;;10.00;99.90;;;;;;5120745;27;20436;-72
2022/04/15 11:16:21;;;;;;;6.60;5.30;;;10.00;99.90;;;;;;5137794;27;20118;-72
2022/04/15 11:19:23;;;;;;;9.23;5.90;;;10.00;99.90;;;;;;5104831;27;20046;-71
2022/04/15 11:21:50;;;;;;;8.00;5.68;;;10.10;99.90;;;;;;5135866;27;20054;-71
2022/04/15 11:24:22;;;;;;;8.45;5.63;;;10.10;99.90;;;;;;5100148;28;20074;-73
2022/04/15 11:26:49;;;;;;;8.40;6.40;;;10.00;99.90;;;;;;5100211;28;20316;-72
2022/04/15 11:29:14;;;;;;;8.07;5.80;;;10.30;99.90;;;;;;5112745;27;20099;-73
2022/04/15 11:31:55;;;;;;;8.02;5.50;;;10.30;99.90;;;;;;5117180;27;20035;-72
2022/04/15 11:34:21;;;;;;;8.52;5.90;;;10.30;99.90;;;;;;5114423;27;20049;-72
2022/04/15 11:36:48;;;;;;;7.18;5.90;;;10.20;99.90;;;;;;5120861;27;20032;-73
2022/04/15 11:39:21;;;;;;;7.95;6.03;;;10.00;99.90;;;;;;5115868;28;20118;-72
2022/04/15 11:41:49;;;;;;;6.38;5.78;;;10.10;99.90;;;;;;5117044;27;20035;-74
2022/04/15 11:44:16;;;;;;;7.15;5.43;;;10.20;99.90;;;;;;5124347;27;20043;-73
2022/04/15 11:46:43;;;;;;;7.13;5.40;;;10.30;99.90;;;;;;5106806;28;20048;-74
2022/04/15 11:49:23;;;;;;;7.03;4.97;;;10.10;99.90;;;;;;5099743;28;20121;-73
2022/04/15 11:51:59;;;;;;;6.78;5.07;;;10.10;99.90;;;;;;5102749;27;20035;-72
2022/04/15 11:55:04;;;;;;;7.50;4.93;;;10.10;99.90;;;;;;5123447;27;20364;-73
2022/04/15 11:57:31;;;;;;;8.80;6.18;;;10.10;99.90;;;;;;5074990;27;20054;-73
2022/04/15 11:59:57;;;;;;;7.97;5.53;;;10.00;99.90;;;;;;5102736;27;20039;-72
2022/04/15 12:02:25;;;;;;;7.05;5.15;;;10.10;99.90;;;;;;5130559;27;20029;-71
2022/04/15 12:04:54;;;;;;;8.63;5.45;;;10.20;99.90;;;;;;5140812;27;20045;-72
2022/04/15 12:07:21;;;;;;;9.38;5.28;;;10.10;99.90;;;;;;5135323;27;20038;-71
2022/04/15 12:09:47;;;;;;;11.80;6.40;;;10.20;99.90;;;;;;5140807;27;20042;-72
2022/04/15 12:12:16;;;;;;;8.50;5.68;;;10.20;99.90;;;;;;5122654;27;20043;-72
2022/04/15 12:14:43;;;;;;;8.18;5.65;;;10.10;99.90;;;;;;5140603;27;20038;-72
2022/04/15 12:17:11;;;;;;;7.47;5.95;;;10.10;99.90;;;;;;5130573;27;20030;-71
2022/04/15 12:19:38;;;;;;;6.57;5.70;;;10.20;99.90;;;;;;5118030;27;20380;-73
2022/04/15 12:22:06;;;;;;;7.80;5.93;;;10.20;99.90;;;;;;5122891;27;20034;-72
2022/04/15 12:24:32;;;;;;;7.97;5.55;;;10.20;99.90;;;;;;5137918;27;20046;-73
2022/04/15 12:27:05;;;;;;;7.80;5.38;;;10.10;99.90;;;;;;5086303;27;20045;-71
2022/04/15 12:29:54;;;;;;;7.18;5.05;;;10.20;99.90;;;;;;5131774;27;20333;-70
2022/04/15 12:32:35;;;;;;;8.25;5.10;;;10.10;99.90;;;;;;5139685;27;20337;-70
2022/04/15 12:35:00;;;;;;;8.55;6.57;;;10.10;99.90;;;;;;5123060;27;20045;-71
2022/04/15 12:37:33;;;;;;;7.40;5.55;;;10.20;99.90;;;;;;5120195;27;20070;-70
2022/04/15 12:40:29;;;;;;;8.35;5.63;;;10.50;99.90;;;;;;5119149;27;20097;-72
2022/04/15 12:42:55;;;;;;;;;;;10.40;99.90;;;;;;5127229;27;20035;-72
2022/04/15 12:45:27;;;;;;;11.13;5.88;;;10.60;99.90;;;;;;5119390;27;19919;-72
2022/04/15 12:48:32;;;;;;;7.13;5.45;;;10.40;99.90;;;;;;5111582;27;20983;-72
2022/04/15 12:50:59;;;;;;;6.07;4.82;;;10.60;99.90;;;;;;5120775;27;20042;-72
2022/04/15 12:53:36;;;;;;;7.75;5.80;;;10.70;99.90;;;;;;5122346;27;20053;-73
2022/04/15 12:59:39;;;;;;;7.88;5.25;;;10.40;99.90;;;;;;5122733;27;20088;-72
2022/04/15 13:02:05;;;;;;;7.32;5.68;;;10.50;99.90;;;;;;5102143;27;20031;-72
2022/04/15 13:04:30;;;;;;;6.78;5.65;;;10.20;99.90;;;;;;5101620;27;20050;-72
2022/04/15 13:06:56;;;;;;;7.32;5.95;;;10.20;99.90;;;;;;5101994;27;20067;-72
2022/04/15 13:09:45;;;;;;;8.38;6.38;;;10.20;99.90;;;;;;5108215;27;20047;-73
2022/04/15 13:12:15;;;;;;;7.22;5.88;;;10.10;99.90;;;;;;5085642;27;20035;-73
2022/04/15 13:14:41;;;;;;;6.30;5.68;;;10.00;99.90;;;;;;5087563;27;20066;-72
2022/04/15 13:17:09;;;;;;;10.32;6.50;;;10.10;99.90;;;;;;5095458;27;20039;-73